Aidablu — IBWX — position and weather

sailwx.info

Track history (hours):
 
Tides and Currents Weather Stations Pressure Air Temp Water Temp Dewpoint Dewpoint Depression Visibility Wind Speed Wind Dir Waves Ship Positions

Aidablu

Last reported at 2014-Oct-24 21:33 UTC. Time now 2014-Oct-25 00:36 UTC.
Position N 41°26' E 003°59'.

Length 252 m; draft 7.3 m.

Type: Ship. MMSI: 247282500.

Date/timePositionNaut miles runAvg speedWind from/ knotsBaromVisibWave heightAir tempDewpointWater temp
2014-Oct-24 21:33N 41°26' E 003°59'1512.7
2014-Oct-24 20:23N 41°28' E 004°19'1413.8
2014-Oct-24 19:22N 41°29' E 004°38'1313.7
2014-Oct-24 18:25N 41°31' E 004°55'1010.2
2014-Oct-24 17:28N 41°32' E 005°08'9 7.3
2014-Oct-24 16:14N 41°33' E 005°20'30 7.3
2014-Oct-24 12:06N 41°36' E 005°60'7 7.0
2014-Oct-24 11:04N 41°37' E 006°09'14 7.4
2014-Oct-24 09:08N 41°39' E 006°28'149 4.4
2014-Oct-22 23:21N 43°04' E 009°13'1514.5
2014-Oct-22 22:20N 43°10' E 009°31'1114.1
2014-Oct-22 21:33N 43°15' E 009°45'1414.1
2014-Oct-22 20:33N 43°22' E 010°02'1413.9
2014-Oct-22 19:33N 43°32' E 010°15'2 2.2
2014-Oct-22 18:31N 43°33' E 010°18'0 0.0
2014-Oct-22 17:31N 43°33' E 010°18'0 0.0
2014-Oct-22 16:33N 43°33' E 010°18'0 0.0
2014-Oct-22 15:33N 43°33' E 010°18'0 0.0
2014-Oct-22 14:32N 43°33' E 010°18'0 0.0
2014-Oct-22 13:32N 43°33' E 010°18'0 0.0
2014-Oct-22 12:31N 43°33' E 010°18'0 0.0
2014-Oct-22 11:31N 43°33' E 010°18'0 0.0
2014-Oct-22 10:31N 43°33' E 010°18'0 0.0
2014-Oct-22 09:33N 43°33' E 010°18'0 0.0
2014-Oct-22 08:33N 43°33' E 010°18'0 0.0
2014-Oct-22 07:32N 43°33' E 010°18'0 0.0
2014-Oct-22 06:32N 43°33' E 010°18'0 0.0
2014-Oct-22 05:31N 43°33' E 010°18'0 0.0
2014-Oct-22 04:32N 43°33' E 010°18'0 0.0
2014-Oct-22 03:31N 43°33' E 010°18'0 0.0
2014-Oct-22 02:33N 43°33' E 010°18'0 0.0
2014-Oct-22 01:33N 43°33' E 010°18'5 5.2
2014-Oct-22 00:33N 43°29' E 010°13'1918.5
2014-Oct-21 23:34N 43°11' E 010°18'  
2014-Oct-19 19:18N 38°45' E 013°36'1013.9
2014-Oct-19 18:33N 38°35' E 013°33'1313.5
2014-Oct-19 17:33N 38°21' E 013°32'1313.3
2014-Oct-19 16:33N 38°09' E 013°26'3 3.0
2014-Oct-19 15:31N 38°08' E 013°22'0 0.0
2014-Oct-19 14:31N 38°08' E 013°22'0 0.0
2014-Oct-19 13:33N 38°08' E 013°22'0 0.0
2014-Oct-19 12:33N 38°08' E 013°22'0 0.0
2014-Oct-19 11:32N 38°08' E 013°22'0 0.0
2014-Oct-19 10:29N 38°08' E 013°22'0 0.0
2014-Oct-19 09:31N 38°08' E 013°22'0 0.0
2014-Oct-19 08:28N 38°08' E 013°22'0 0.0
2014-Oct-19 07:31N 38°08' E 013°22'0 0.1
2014-Oct-19 06:33N 38°08' E 013°22'5 5.0
2014-Oct-19 05:34N 38°13' E 013°23'1110.8
2014-Oct-19 04:33N 38°20' E 013°12'1313.1
2014-Oct-19 03:34N 38°23' E 012°56'11716.7
2014-Oct-18 20:33N 38°49' E 010°30'5317.7
2014-Oct-18 17:33N 39°02' E 009°24'1515.4
2014-Oct-18 16:33N 39°09' E 009°07'3 3.4
2014-Oct-18 15:33N 39°12' E 009°06'0 0.0
2014-Oct-18 14:32N 39°12' E 009°06'0 0.0
2014-Oct-18 13:32N 39°12' E 009°06'0 0.0
2014-Oct-18 12:32N 39°12' E 009°06'0 0.0
2014-Oct-18 11:31N 39°12' E 009°06'0 0.0
2014-Oct-18 10:31N 39°12' E 009°06'0 0.0
2014-Oct-18 09:33N 39°12' E 009°06'0 0.0
2014-Oct-18 08:33N 39°12' E 009°06'0 0.0
2014-Oct-18 07:32N 39°12' E 009°06'0 0.0
2014-Oct-18 06:32N 39°12' E 009°06'0 0.0
2014-Oct-18 05:33N 39°12' E 009°06'5 5.4
2014-Oct-18 04:33N 39°07' E 009°07'1212.0
2014-Oct-18 03:33N 38°56' E 009°03'1312.7
2014-Oct-18 02:32N 38°47' E 008°51'17 8.6
2014-Oct-18 00:32N 38°47' E 008°28'16 7.5
2014-Oct-17 22:26N 38°48' E 008°08'8 7.2
2014-Oct-17 21:21N 38°49' E 007°58'6 6.6
2014-Oct-17 20:27N 38°50' E 007°51'6 6.4
2014-Oct-17 19:31N 38°50' E 007°43'6 6.1
2014-Oct-17 18:31N 38°51' E 007°35'13 5.6
2014-Oct-17 16:16N 38°52' E 007°19'19 6.5
2014-Oct-17 13:24N 38°54' E 006°55'14711.5
2014-Oct-17 00:33N 39°10' E 003°47'1514.8
2014-Oct-16 23:33N 39°12' E 003°28'1514.8
2014-Oct-16 22:33N 39°13' E 003°09'1514.7
2014-Oct-16 21:33N 39°18' E 002°51'1313.3
2014-Oct-16 20:33N 39°29' E 002°40'5 4.5
2014-Oct-16 19:31N 39°33' E 002°38'0 0.0
2014-Oct-16 18:33N 39°33' E 002°38'0 0.0
2014-Oct-16 17:33N 39°33' E 002°38'0 0.0
2014-Oct-16 16:29N 39°33' E 002°38'0 0.0
2014-Oct-16 15:32N 39°33' E 002°38'0 0.0
2014-Oct-16 14:32N 39°33' E 002°38'0 0.0
2014-Oct-16 13:31N 39°33' E 002°38'0 0.0
2014-Oct-16 12:31N 39°33' E 002°38'0 0.0
2014-Oct-16 11:33N 39°33' E 002°38'0 0.0
2014-Oct-16 10:33N 39°33' E 002°38'0 0.0
2014-Oct-16 09:32N 39°33' E 002°38'0 0.0
2014-Oct-16 08:32N 39°33' E 002°38'0 0.0
2014-Oct-16 07:32N 39°33' E 002°38'0 0.0
2014-Oct-16 06:31N 39°33' E 002°38'0 0.0
2014-Oct-16 05:33N 39°33' E 002°38'0 0.0
2014-Oct-16 04:33N 39°33' E 002°38'0 0.0
2014-Oct-16 03:33N 39°33' E 002°38'0 0.1
2014-Oct-16 02:33N 39°33' E 002°38'3 3.5
2014-Oct-16 01:33N 39°30' E 002°36'1010.5
2014-Oct-16 00:33N 39°28' E 002°23'1413.7
2014-Oct-15 23:31N 39°40' E 002°13'1313.7
2014-Oct-15 22:33N 39°53' E 002°13'1413.9
2014-Oct-15 21:33N 40°07' E 002°12'1413.8
2014-Oct-15 20:33N 40°21' E 002°13'1414.1
2014-Oct-15 19:33N 40°35' E 002°12'1414.1
2014-Oct-15 18:33N 40°49' E 002°12'1414.1
2014-Oct-15 17:33N 41°03' E 002°11'1414.2
2014-Oct-15 16:33N 41°17' E 002°10'4 1.6
2014-Oct-15 14:08N 41°21' E 002°11'0 0.0
2014-Oct-15 12:31N 41°21' E 002°11'0 0.0
2014-Oct-15 05:10N 41°21' E 002°10'3 4.2
2014-Oct-15 04:31N 41°19' E 002°10'  
Track history (hours):
 
Tides and Currents Weather Stations Pressure Air Temp Water Temp Dewpoint Dewpoint Depression Visibility Wind Speed Wind Dir Waves Ship Positions

Aidablu

Last reported at 2014-Oct-24 21:33 UTC. Time now 2014-Oct-25 00:36 UTC.
Position N 41°26' E 003°59'.

Length 252 m; draft 7.3 m.

Type: Ship. MMSI: 247282500.

Date/timePositionNaut miles runAvg speedWind from/ knotsBaromVisibWave heightAir tempDewpointWater temp
2014-Oct-24 21:33N 41°26' E 003°59'1512.7
2014-Oct-24 20:23N 41°28' E 004°19'1413.8
2014-Oct-24 19:22N 41°29' E 004°38'1313.7
2014-Oct-24 18:25N 41°31' E 004°55'1010.2
2014-Oct-24 17:28N 41°32' E 005°08'9 7.3
2014-Oct-24 16:14N 41°33' E 005°20'30 7.3
2014-Oct-24 12:06N 41°36' E 005°60'7 7.0
2014-Oct-24 11:04N 41°37' E 006°09'14 7.4
2014-Oct-24 09:08N 41°39' E 006°28'149 4.4
2014-Oct-22 23:21N 43°04' E 009°13'1514.5
2014-Oct-22 22:20N 43°10' E 009°31'1114.1
2014-Oct-22 21:33N 43°15' E 009°45'1414.1
2014-Oct-22 20:33N 43°22' E 010°02'1413.9
2014-Oct-22 19:33N 43°32' E 010°15'2 2.2
2014-Oct-22 18:31N 43°33' E 010°18'0 0.0
2014-Oct-22 17:31N 43°33' E 010°18'0 0.0
2014-Oct-22 16:33N 43°33' E 010°18'0 0.0
2014-Oct-22 15:33N 43°33' E 010°18'0 0.0
2014-Oct-22 14:32N 43°33' E 010°18'0 0.0
2014-Oct-22 13:32N 43°33' E 010°18'0 0.0
2014-Oct-22 12:31N 43°33' E 010°18'0 0.0
2014-Oct-22 11:31N 43°33' E 010°18'0 0.0
2014-Oct-22 10:31N 43°33' E 010°18'0 0.0
2014-Oct-22 09:33N 43°33' E 010°18'0 0.0
2014-Oct-22 08:33N 43°33' E 010°18'0 0.0
2014-Oct-22 07:32N 43°33' E 010°18'0 0.0
2014-Oct-22 06:32N 43°33' E 010°18'0 0.0
2014-Oct-22 05:31N 43°33' E 010°18'0 0.0
2014-Oct-22 04:32N 43°33' E 010°18'0 0.0
2014-Oct-22 03:31N 43°33' E 010°18'0 0.0
2014-Oct-22 02:33N 43°33' E 010°18'0 0.0
2014-Oct-22 01:33N 43°33' E 010°18'5 5.2
2014-Oct-22 00:33N 43°29' E 010°13'1918.5
2014-Oct-21 23:34N 43°11' E 010°18'  
2014-Oct-19 19:18N 38°45' E 013°36'1013.9
2014-Oct-19 18:33N 38°35' E 013°33'1313.5
2014-Oct-19 17:33N 38°21' E 013°32'1313.3
2014-Oct-19 16:33N 38°09' E 013°26'3 3.0
2014-Oct-19 15:31N 38°08' E 013°22'0 0.0
2014-Oct-19 14:31N 38°08' E 013°22'0 0.0
2014-Oct-19 13:33N 38°08' E 013°22'0 0.0
2014-Oct-19 12:33N 38°08' E 013°22'0 0.0
2014-Oct-19 11:32N 38°08' E 013°22'0 0.0
2014-Oct-19 10:29N 38°08' E 013°22'0 0.0
2014-Oct-19 09:31N 38°08' E 013°22'0 0.0
2014-Oct-19 08:28N 38°08' E 013°22'0 0.0
2014-Oct-19 07:31N 38°08' E 013°22'0 0.1
2014-Oct-19 06:33N 38°08' E 013°22'5 5.0
2014-Oct-19 05:34N 38°13' E 013°23'1110.8
2014-Oct-19 04:33N 38°20' E 013°12'1313.1
2014-Oct-19 03:34N 38°23' E 012°56'11716.7
2014-Oct-18 20:33N 38°49' E 010°30'5317.7
2014-Oct-18 17:33N 39°02' E 009°24'1515.4
2014-Oct-18 16:33N 39°09' E 009°07'3 3.4
2014-Oct-18 15:33N 39°12' E 009°06'0 0.0
2014-Oct-18 14:32N 39°12' E 009°06'0 0.0
2014-Oct-18 13:32N 39°12' E 009°06'0 0.0
2014-Oct-18 12:32N 39°12' E 009°06'0 0.0
2014-Oct-18 11:31N 39°12' E 009°06'0 0.0
2014-Oct-18 10:31N 39°12' E 009°06'0 0.0
2014-Oct-18 09:33N 39°12' E 009°06'0 0.0
2014-Oct-18 08:33N 39°12' E 009°06'0 0.0
2014-Oct-18 07:32N 39°12' E 009°06'0 0.0
2014-Oct-18 06:32N 39°12' E 009°06'0 0.0
2014-Oct-18 05:33N 39°12' E 009°06'5 5.4
2014-Oct-18 04:33N 39°07' E 009°07'1212.0
2014-Oct-18 03:33N 38°56' E 009°03'1312.7
2014-Oct-18 02:32N 38°47' E 008°51'17 8.6
2014-Oct-18 00:32N 38°47' E 008°28'16 7.5
2014-Oct-17 22:26N 38°48' E 008°08'8 7.2
2014-Oct-17 21:21N 38°49' E 007°58'6 6.6
2014-Oct-17 20:27N 38°50' E 007°51'6 6.4
2014-Oct-17 19:31N 38°50' E 007°43'6 6.1
2014-Oct-17 18:31N 38°51' E 007°35'13 5.6
2014-Oct-17 16:16N 38°52' E 007°19'19 6.5
2014-Oct-17 13:24N 38°54' E 006°55'14711.5
2014-Oct-17 00:33N 39°10' E 003°47'1514.8
2014-Oct-16 23:33N 39°12' E 003°28'1514.8
2014-Oct-16 22:33N 39°13' E 003°09'1514.7
2014-Oct-16 21:33N 39°18' E 002°51'1313.3
2014-Oct-16 20:33N 39°29' E 002°40'5 4.5
2014-Oct-16 19:31N 39°33' E 002°38'0 0.0
2014-Oct-16 18:33N 39°33' E 002°38'0 0.0
2014-Oct-16 17:33N 39°33' E 002°38'0 0.0
2014-Oct-16 16:29N 39°33' E 002°38'0 0.0
2014-Oct-16 15:32N 39°33' E 002°38'0 0.0
2014-Oct-16 14:32N 39°33' E 002°38'0 0.0
2014-Oct-16 13:31N 39°33' E 002°38'0 0.0
2014-Oct-16 12:31N 39°33' E 002°38'0 0.0
2014-Oct-16 11:33N 39°33' E 002°38'0 0.0
2014-Oct-16 10:33N 39°33' E 002°38'0 0.0
2014-Oct-16 09:32N 39°33' E 002°38'0 0.0
2014-Oct-16 08:32N 39°33' E 002°38'0 0.0
2014-Oct-16 07:32N 39°33' E 002°38'0 0.0
2014-Oct-16 06:31N 39°33' E 002°38'0 0.0
2014-Oct-16 05:33N 39°33' E 002°38'0 0.0
2014-Oct-16 04:33N 39°33' E 002°38'0 0.0
2014-Oct-16 03:33N 39°33' E 002°38'0 0.1
2014-Oct-16 02:33N 39°33' E 002°38'3 3.5
2014-Oct-16 01:33N 39°30' E 002°36'1010.5
2014-Oct-16 00:33N 39°28' E 002°23'1413.7
2014-Oct-15 23:31N 39°40' E 002°13'1313.7
2014-Oct-15 22:33N 39°53' E 002°13'1413.9
2014-Oct-15 21:33N 40°07' E 002°12'1413.8
2014-Oct-15 20:33N 40°21' E 002°13'1414.1
2014-Oct-15 19:33N 40°35' E 002°12'1414.1
2014-Oct-15 18:33N 40°49' E 002°12'1414.1
2014-Oct-15 17:33N 41°03' E 002°11'1414.2
2014-Oct-15 16:33N 41°17' E 002°10'4 1.6
2014-Oct-15 14:08N 41°21' E 002°11'0 0.0
2014-Oct-15 12:31N 41°21' E 002°11'0 0.0
2014-Oct-15 05:10N 41°21' E 002°10'3 4.2
2014-Oct-15 04:31N 41°19' E 002°10'  

Dump ship's entire track history